Time;durP1;ratioP1;P1;durP2;ratioP2;P2;SDS_P1;SDS_P2;PMS_P1;PMS_P2;Temp;Humidity;BMP_temperature;BMP_pressure;BME280_temperature;BME280_humidity;BME280_pressure;Samples;Min_cycle;Max_cycle;Signal;HPM_P1;HPM_P2
2020/12/16 00:01:57;;;;;;;14.07;12.97;;;;;;;9.17;84.63;100564.00;5038828;28;20236;-81
2020/12/16 00:04:23;;;;;;;11.83;10.83;;;;;;;9.18;84.32;100558.78;5036296;28;20201;-81
2020/12/16 00:06:49;;;;;;;11.43;10.07;;;;;;;9.18;84.43;100552.69;5037766;28;20213;-81
2020/12/16 00:09:15;;;;;;;11.03;10.23;;;;;;;9.14;84.74;100567.50;5036734;28;20221;-81
2020/12/16 00:11:41;;;;;;;10.27;9.43;;;;;;;9.13;84.24;100566.63;5038465;28;20209;-81
2020/12/16 00:14:08;;;;;;;10.63;9.70;;;;;;;9.09;84.48;100569.28;5035939;28;20221;-81
2020/12/16 00:16:33;;;;;;;10.20;9.20;;;;;;;9.10;84.20;100569.25;5040482;28;20220;-80
2020/12/16 00:18:59;;;;;;;10.93;9.93;;;;;;;9.11;84.41;100580.53;5036315;28;20233;-81
2020/12/16 00:21:25;;;;;;;13.43;12.37;;;;;;;9.14;83.82;100578.78;5044568;28;20226;-79
2020/12/16 00:23:52;;;;;;;14.03;12.93;;;;;;;9.16;84.25;100576.16;5046448;28;20266;-79
2020/12/16 00:26:18;;;;;;;16.47;15.07;;;;;;;9.17;84.35;100577.88;5061434;28;20208;-79
2020/12/16 00:28:44;;;;;;;14.80;13.70;;;;;;;9.20;84.19;100577.00;5047273;28;20221;-79
2020/12/16 00:31:12;;;;;;;15.20;13.90;;;;;;;9.23;84.21;100577.78;5063628;28;20211;-79
2020/12/16 00:33:39;;;;;;;15.07;13.87;;;;;;;9.20;84.02;100590.00;5050871;28;20225;-79
2020/12/16 00:36:04;;;;;;;14.47;13.17;;;;;;;9.16;83.77;100578.75;5057770;28;20206;-79
2020/12/16 00:38:30;;;;;;;13.53;12.33;;;;;;;9.19;83.90;100578.72;5052749;28;20256;-80
2020/12/16 00:40:56;;;;;;;15.23;13.90;;;;;;;9.13;83.59;100579.63;5062712;28;20203;-79
2020/12/16 00:43:22;;;;;;;16.03;12.97;;;;;;;9.07;84.07;100576.25;5053658;28;20217;-80
2020/12/16 00:45:48;;;;;;;13.43;12.40;;;;;;;9.10;84.10;100576.22;5061133;28;20271;-79
2020/12/16 00:48:15;;;;;;;12.57;11.67;;;;;;;9.10;84.32;100573.63;5054194;28;20205;-79
2020/12/16 00:50:40;;;;;;;13.20;11.80;;;;;;;9.09;84.05;100570.13;5061943;28;20232;-79
2020/12/16 00:53:06;;;;;;;15.20;13.43;;;;;;;9.03;84.04;100571.94;5052608;28;20225;-79
2020/12/16 00:55:32;;;;;;;16.53;14.90;;;;;;;8.95;84.71;100580.69;5061384;28;20861;-79
2020/12/16 00:57:58;;;;;;;16.73;15.13;;;;;;;9.00;84.31;100574.56;5055825;28;20258;-79
2020/12/16 01:00:24;;;;;;;16.50;15.00;;;;;;;8.91;84.55;100584.19;5060021;28;20238;-80
2020/12/16 01:02:51;;;;;;;20.80;18.87;;;;;;;8.77;85.75;100591.28;5057335;28;20210;-79
2020/12/16 01:05:19;;;;;;;19.70;17.83;;;;;;;8.66;86.58;100598.31;5059483;28;20205;-79
2020/12/16 01:07:45;;;;;;;22.20;20.03;;;;;;;8.57;87.41;100595.81;5060072;28;20189;-79
2020/12/16 01:10:13;;;;;;;19.67;17.73;;;;;;;8.54;87.21;100600.16;5048315;28;20225;-79
2020/12/16 01:12:41;;;;;;;20.37;18.37;;;;;;;8.53;87.04;100598.41;5048792;28;20204;-79
2020/12/16 01:15:08;;;;;;;20.70;17.67;;;;;;;8.57;86.93;100599.28;5049465;28;20577;-79
2020/12/16 01:17:38;;;;;;;16.83;15.33;;;;;;;8.68;86.73;100602.66;5050153;28;20216;-79
2020/12/16 01:20:04;;;;;;;18.13;16.33;;;;;;;8.71;86.60;100607.81;5051039;28;20231;-79
2020/12/16 01:22:31;;;;;;;16.23;14.70;;;;;;;8.81;86.46;100613.81;5050736;28;20699;-80
2020/12/16 01:24:57;;;;;;;15.90;14.53;;;;;;;8.83;85.67;100611.19;5050465;28;20201;-79
2020/12/16 01:27:22;;;;;;;17.37;15.57;;;;;;;8.89;85.44;100614.59;5051632;28;20201;-79
2020/12/16 01:29:48;;;;;;;15.57;14.27;;;;;;;8.91;85.64;100611.97;5051051;28;20225;-79
2020/12/16 01:32:15;;;;;;;16.57;15.20;;;;;;;8.93;85.23;100626.69;5054357;28;20227;-79
2020/12/16 01:34:41;;;;;;;19.33;17.60;;;;;;;8.81;85.34;100618.16;5051963;28;20735;-80
2020/12/16 01:37:07;;;;;;;18.17;16.27;;;;;;;8.86;85.12;100618.97;5056646;28;20208;-79
2020/12/16 01:39:33;;;;;;;15.80;14.57;;;;;;;8.89;84.78;100621.53;5051666;28;20224;-79
2020/12/16 01:41:59;;;;;;;14.70;13.40;;;;;;;8.91;84.88;100617.19;5057424;28;20599;-80
2020/12/16 01:44:28;;;;;;;16.47;14.87;;;;;;;8.91;84.74;100620.66;5051882;28;20205;-79
2020/12/16 01:46:56;;;;;;;15.57;14.00;;;;;;;8.93;84.39;100623.25;5058639;28;20215;-79
2020/12/16 01:49:24;;;;;;;15.93;14.33;;;;;;;8.94;84.77;100618.03;5053344;28;20709;-79
2020/12/16 01:51:53;;;;;;;15.50;13.83;;;;;;;8.94;84.43;100620.63;5058045;28;20202;-79
2020/12/16 01:54:21;;;;;;;14.53;13.33;;;;;;;8.94;84.45;100622.38;5050890;28;20647;-80
2020/12/16 01:56:51;;;;;;;16.47;13.27;;;;;;;8.93;84.80;100621.50;5060681;28;20231;-79
2020/12/16 01:59:17;;;;;;;15.47;13.97;;;;;;;8.90;84.66;100628.47;5049672;28;20294;-79
2020/12/16 02:01:45;;;;;;;15.27;13.77;;;;;;;8.92;84.70;100622.38;5063477;28;20701;-79
2020/12/16 02:04:12;;;;;;;16.03;14.53;;;;;;;8.95;84.14;100616.28;5045916;28;20284;-79
2020/12/16 02:06:41;;;;;;;15.27;13.90;;;;;;;8.98;83.99;100623.19;5061164;28;20200;-79
2020/12/16 02:09:08;;;;;;;14.63;13.43;;;;;;;8.99;84.33;100627.53;5045972;28;20248;-79
2020/12/16 02:11:36;;;;;;;14.70;13.43;;;;;;;8.98;84.49;100626.69;5045944;28;20216;-79
2020/12/16 02:14:04;;;;;;;15.00;13.60;;;;;;;8.98;84.15;100624.06;5044752;28;20209;-79
2020/12/16 02:16:30;;;;;;;15.83;14.33;;;;;;;8.98;84.64;100620.59;5047142;28;20209;-79
2020/12/16 02:18:56;;;;;;;17.33;15.70;;;;;;;8.95;84.43;100618.88;5045898;28;20256;-79
2020/12/16 02:21:22;;;;;;;16.07;14.57;;;;;;;8.97;84.68;100618.88;5048369;28;20201;-79
2020/12/16 02:23:50;;;;;;;18.30;16.43;;;;;;;8.98;84.48;100616.25;5043395;28;20205;-79
2020/12/16 02:26:17;;;;;;;17.40;15.70;;;;;;;8.99;84.86;100615.38;5050451;28;20595;-80
2020/12/16 02:28:43;;;;;;;17.63;15.93;;;;;;;8.98;84.64;100625.78;5044148;28;20219;-79
2020/12/16 02:31:10;;;;;;;17.97;16.27;;;;;;;8.97;84.71;100627.53;5053241;28;20197;-79
2020/12/16 02:33:36;;;;;;;17.97;16.00;;;;;;;8.98;84.98;100631.00;5045029;28;20198;-78
2020/12/16 02:36:02;;;;;;;17.93;16.13;;;;;;;9.00;84.53;100634.44;5053121;28;20267;-79
2020/12/16 02:38:28;;;;;;;15.70;14.20;;;;;;;8.95;84.36;100634.50;5046840;28;20252;-79
2020/12/16 02:40:54;;;;;;;16.97;15.40;;;;;;;8.97;84.80;100640.56;5053553;28;20224;-79
2020/12/16 02:43:21;;;;;;;16.83;15.30;;;;;;;9.00;84.40;100640.53;5048486;28;20223;-79
2020/12/16 02:45:47;;;;;;;16.17;14.57;;;;;;;8.98;84.66;100639.69;5052644;28;20205;-79
2020/12/16 02:48:13;;;;;;;15.43;13.83;;;;;;;8.98;85.07;100646.63;5040089;28;20194;-79
2020/12/16 02:50:40;;;;;;;16.57;14.97;;;;;;;8.99;84.99;100648.38;5049788;28;20221;-79
2020/12/16 02:53:07;;;;;;;18.07;14.47;;;;;;;9.00;84.37;100642.25;5047902;28;20242;-79
2020/12/16 02:55:33;;;;;;;15.73;14.23;;;;;;;9.02;84.93;100651.81;5057063;28;20275;-79
2020/12/16 02:57:59;;;;;;;15.87;14.37;;;;;;;9.04;84.32;100650.06;5050833;28;20223;-79
2020/12/16 03:00:25;;;;;;;14.90;13.50;;;;;;;9.04;84.59;100646.56;5049646;28;20228;-79
2020/12/16 03:02:51;;;;;;;13.73;12.43;;;;;;;9.03;84.81;100643.09;5053554;28;20200;-79
2020/12/16 03:05:17;;;;;;;15.50;14.10;;;;;;;9.03;84.89;100637.91;5048013;28;20334;-79
2020/12/16 03:07:44;;;;;;;14.60;13.20;;;;;;;9.02;84.54;100648.31;5055138;28;20223;-79
2020/12/16 03:10:10;;;;;;;16.87;13.57;;;;;;;9.05;84.99;100643.09;5044301;28;20225;-79
2020/12/16 03:12:36;;;;;;;14.83;13.27;;;;;;;9.03;84.72;100647.47;5049612;28;20706;-79
2020/12/16 03:15:02;;;;;;;15.23;13.87;;;;;;;9.04;84.75;100647.44;5048646;28;20214;-79
2020/12/16 03:17:29;;;;;;;13.53;12.33;;;;;;;9.03;84.82;100644.84;5048964;28;20594;-79
2020/12/16 03:19:54;;;;;;;13.97;12.60;;;;;;;9.07;84.78;100649.16;5050154;28;20225;-79
2020/12/16 03:22:20;;;;;;;14.30;13.00;;;;;;;9.07;84.87;100651.75;5049702;28;20217;-79
2020/12/16 03:24:46;;;;;;;15.10;13.60;;;;;;;9.06;84.53;100658.72;5047874;28;20209;-80
2020/12/16 03:27:12;;;;;;;14.17;12.87;;;;;;;9.06;84.15;100650.03;5051800;28;20204;-79
2020/12/16 03:29:38;;;;;;;13.77;12.57;;;;;;;9.01;84.10;100654.41;5047510;28;20221;-79
2020/12/16 03:32:04;;;;;;;13.90;12.53;;;;;;;9.03;84.40;100657.88;5054019;28;20202;-79
2020/12/16 03:34:30;;;;;;;13.93;12.47;;;;;;;9.02;84.05;100654.41;5047498;28;20197;-79
2020/12/16 03:36:56;;;;;;;14.70;13.37;;;;;;;9.03;84.60;100656.13;5055545;28;20212;-79
2020/12/16 03:39:22;;;;;;;13.47;12.37;;;;;;;9.02;83.87;100657.00;5047042;28;20224;-79
2020/12/16 03:41:50;;;;;;;13.13;11.93;;;;;;;9.01;84.32;100660.47;5056353;28;20257;-79
2020/12/16 03:44:16;;;;;;;14.17;12.87;;;;;;;9.01;83.92;100668.28;5050849;28;20223;-79
2020/12/16 03:46:42;;;;;;;15.53;14.03;;;;;;;8.95;84.03;100661.41;5057291;28;20257;-79
2020/12/16 03:49:08;;;;;;;14.40;13.20;;;;;;;8.96;84.56;100667.50;5046874;28;20251;-79
2020/12/16 03:51:34;;;;;;;14.13;12.93;;;;;;;8.95;83.94;100669.22;5056136;28;20348;-79
2020/12/16 03:54:00;;;;;;;13.20;12.03;;;;;;;8.97;84.18;100660.53;5046704;28;20209;-79
2020/12/16 03:56:26;;;;;;;13.43;12.23;;;;;;;8.92;83.93;100664.03;5058552;28;20668;-79
2020/12/16 03:58:52;;;;;;;13.80;12.50;;;;;;;8.86;83.60;100664.09;5047342;28;20248;-79
2020/12/16 04:01:20;;;;;;;13.07;11.77;;;;;;;8.82;83.67;100664.13;5057966;28;20201;-79
2020/12/16 04:03:46;;;;;;;12.33;11.33;;;;;;;8.74;83.48;100661.56;5049383;28;20213;-78
2020/12/16 04:06:14;;;;;;;11.23;10.27;;;;;;;8.75;82.84;100664.16;5057624;28;20620;-79
2020/12/16 04:08:41;;;;;;;11.17;10.20;;;;;;;8.69;82.89;100666.81;5050283;28;20198;-79
2020/12/16 04:11:10;;;;;;;12.13;11.23;;;;;;;8.61;82.27;100673.81;5046310;28;20231;-79
2020/12/16 04:13:36;;;;;;;14.53;13.17;;;;;;;8.52;84.06;100672.16;5046597;28;20197;-79
2020/12/16 04:16:02;;;;;;;12.27;11.27;;;;;;;8.44;83.25;100686.94;5046389;28;20769;-79
2020/12/16 04:18:28;;;;;;;12.23;11.30;;;;;;;8.43;83.33;100686.97;5046375;28;20221;-79
2020/12/16 04:20:54;;;;;;;11.80;10.83;;;;;;;8.39;83.04;100688.69;5047007;28;20220;-79
2020/12/16 04:23:20;;;;;;;12.10;11.20;;;;;;;8.36;82.98;100686.09;5044934;28;20227;-79
2020/12/16 04:25:46;;;;;;;12.53;11.53;;;;;;;8.30;82.44;100686.97;5047403;28;20205;-78
2020/12/16 04:28:12;;;;;;;13.33;12.20;;;;;;;8.30;82.98;100688.72;5045270;28;20202;-79
2020/12/16 04:30:38;;;;;;;12.07;10.97;;;;;;;8.24;82.67;100692.22;5046577;28;20255;-79
2020/12/16 04:33:04;;;;;;;12.03;11.03;;;;;;;8.23;82.07;100697.44;5046862;28;20198;-79
2020/12/16 04:35:30;;;;;;;10.10;9.27;;;;;;;8.16;81.77;100694.84;5047169;28;20198;-79
2020/12/16 04:37:56;;;;;;;12.60;11.43;;;;;;;8.10;81.79;100696.63;5047352;28;20225;-79
2020/12/16 04:40:23;;;;;;;11.93;10.60;;;;;;;8.06;82.23;100689.72;5047355;28;20236;-79
2020/12/16 04:43:09;;;;;;;11.30;10.40;;;;;;;8.04;81.27;100694.06;5043095;28;20197;-79
2020/12/16 04:45:36;;;;;;;10.60;9.77;;;;;;;8.00;81.79;100693.19;5043246;28;20209;-79
2020/12/16 04:48:02;;;;;;;11.33;10.53;;;;;;;7.92;82.37;100693.22;5047815;28;20201;-79
2020/12/16 04:50:28;;;;;;;11.80;9.70;;;;;;;7.91;80.79;100701.06;5047127;28;20673;-79
2020/12/16 04:53:00;;;;;;;10.77;9.43;;;;;;;7.84;81.55;100713.19;5047964;28;20206;-79
2020/12/16 04:55:26;;;;;;;10.87;9.87;;;;;;;7.80;81.63;100723.59;5047408;28;20204;-79
2020/12/16 04:57:52;;;;;;;12.30;11.30;;;;;;;7.74;82.82;100716.69;5048401;28;20247;-78
2020/12/16 05:00:21;;;;;;;12.70;11.67;;;;;;;7.67;82.59;100723.66;5050328;28;20273;-79
2020/12/16 05:02:55;;;;;;;11.77;10.77;;;;;;;7.64;83.08;100725.38;5049405;28;20568;-79
2020/12/16 05:05:21;;;;;;;12.70;11.60;;;;;;;7.63;83.12;100726.25;5051124;28;20208;-78
2020/12/16 05:07:50;;;;;;;11.77;10.77;;;;;;;7.65;82.83;100729.69;5049117;28;20200;-78
2020/12/16 05:10:29;;;;;;;11.27;10.40;;;;;;;7.55;81.25;100731.44;5048248;28;20248;-79
2020/12/16 05:13:01;;;;;;;11.43;10.50;;;;;;;7.49;81.00;100734.06;5046306;28;20213;-78
2020/12/16 05:15:28;;;;;;;12.10;11.13;;;;;;;7.40;80.52;100732.34;5047168;28;20550;-79
2020/12/16 05:18:07;;;;;;;12.30;10.80;;;;;;;7.40;81.52;100734.09;5048707;28;20319;-78
2020/12/16 05:20:33;;;;;;;10.87;9.87;;;;;;;7.35;81.16;100729.78;5048477;28;20235;-79
2020/12/16 05:23:00;;;;;;;11.03;10.13;;;;;;;7.34;80.83;100730.63;5048731;28;20686;-79
2020/12/16 05:25:26;;;;;;;9.63;8.93;;;;;;;7.32;80.42;100724.56;5047933;28;20403;-79
2020/12/16 05:27:52;;;;;;;10.40;9.50;;;;;;;7.29;80.48;100732.34;5048988;28;20221;-79
2020/12/16 05:30:18;;;;;;;13.53;8.63;;;;;;;7.27;80.66;100738.41;5047922;28;20220;-79
2020/12/16 05:32:45;;;;;;;10.43;9.43;;;;;;;7.23;81.12;100729.75;5049532;28;20233;-79
2020/12/16 05:35:23;;;;;;;10.07;9.17;;;;;;;7.18;81.28;100733.25;5045674;28;20200;-79
2020/12/16 05:37:49;;;;;;;10.70;9.90;;;;;;;7.16;81.03;100728.91;5049919;28;20290;-79
2020/12/16 05:40:20;;;;;;;12.07;10.97;;;;;;;7.17;82.00;100732.34;5046863;28;20223;-78
2020/12/16 05:42:48;;;;;;;10.30;9.50;;;;;;;7.14;81.76;100733.22;5051112;28;20229;-79
2020/12/16 05:45:15;;;;;;;9.43;8.63;;;;;;;7.12;81.04;100742.75;5041107;28;20207;-79
2020/12/16 05:47:56;;;;;;;10.63;9.80;;;;;;;7.12;81.87;100744.50;5053673;28;20209;-79
2020/12/16 05:50:22;;;;;;;10.20;9.20;;;;;;;7.10;81.55;100743.63;5047328;28;20228;-79
2020/12/16 05:52:48;;;;;;;10.50;9.50;;;;;;;7.01;81.50;100744.47;5047600;28;20304;-79
2020/12/16 05:55:26;;;;;;;10.03;9.23;;;;;;;7.01;81.92;100735.81;5044814;28;20279;-79
2020/12/16 05:58:05;;;;;;;10.70;9.87;;;;;;;6.93;82.17;100744.47;5044961;28;20221;-79
2020/12/16 06:00:41;;;;;;;11.33;8.80;;;;;;;7.00;82.76;100737.56;5045330;28;20829;-81
2020/12/16 06:03:14;;;;;;;10.13;9.43;;;;;;;6.98;82.22;100739.28;5043968;28;20220;-83
2020/12/16 06:05:40;;;;;;;11.63;10.73;;;;;;;7.02;82.60;100734.97;5043963;28;20209;-79
2020/12/16 06:08:07;;;;;;;11.37;10.47;;;;;;;7.03;81.96;100732.34;5041518;28;20219;-80
2020/12/16 06:10:36;;;;;;;10.20;9.17;;;;;;;6.95;81.35;100721.97;5035800;28;20229;-79
2020/12/16 06:13:05;;;;;;;11.37;10.33;;;;;;;6.87;82.40;100726.28;5039581;28;20212;-83
2020/12/16 06:15:40;;;;;;;11.63;10.67;;;;;;;6.81;82.72;100728.88;5035815;28;20201;-81
2020/12/16 06:18:08;;;;;;;12.60;11.50;;;;;;;6.75;83.45;100726.28;5038216;28;20247;-79
2020/12/16 06:20:37;;;;;;;12.53;11.43;;;;;;;6.75;84.10;100726.28;5036858;28;20224;-79
2020/12/16 06:23:03;;;;;;;13.27;11.83;;;;;;;6.70;84.86;100734.06;5038276;28;20207;-79
2020/12/16 06:25:34;;;;;;;14.13;13.03;;;;;;;6.69;84.34;100734.91;5041492;28;20204;-82
2020/12/16 06:28:01;;;;;;;13.73;12.43;;;;;;;6.68;84.54;100737.50;5041878;28;20197;-80
2020/12/16 06:30:30;;;;;;;13.80;12.60;;;;;;;6.68;84.19;100732.31;5038203;28;20237;-79
2020/12/16 06:33:03;;;;;;;12.07;11.10;;;;;;;6.66;83.37;100742.72;5039990;28;20206;-80
2020/12/16 06:35:29;;;;;;;13.57;12.47;;;;;;;6.62;83.12;100738.38;5041444;28;20204;-80
2020/12/16 06:38:17;;;;;;;14.20;12.90;;;;;;;6.55;84.13;100734.03;5041156;28;20228;-80
2020/12/16 06:40:45;;;;;;;14.77;13.53;;;;;;;6.59;84.38;100738.34;5042404;28;20224;-81
2020/12/16 06:43:41;;;;;;;12.83;11.93;;;;;;;6.60;84.36;100741.81;5041938;28;20215;-80
2020/12/16 06:46:46;;;;;;;12.90;11.80;;;;;;;6.55;83.79;100747.00;5043940;28;20698;-81
2020/12/16 06:49:38;;;;;;;12.63;11.63;;;;;;;6.57;83.89;100745.28;5040447;28;20221;-81
2020/12/16 06:52:07;;;;;;;13.50;12.50;;;;;;;6.58;83.23;100752.22;5042475;28;20208;-81
2020/12/16 06:54:54;;;;;;;12.57;11.47;;;;;;;6.63;82.63;100753.06;5040629;28;20235;-81
2020/12/16 06:57:26;;;;;;;12.53;11.63;;;;;;;6.56;82.46;100756.50;5045708;28;20198;-81
2020/12/16 06:59:54;;;;;;;13.60;12.37;;;;;;;6.54;82.56;100753.91;5041004;28;20605;-80
2020/12/16 07:02:23;;;;;;;13.87;12.63;;;;;;;6.50;82.97;100757.38;5042820;28;20232;-79
2020/12/16 07:04:49;;;;;;;12.50;11.43;;;;;;;6.45;82.51;100756.47;5038685;28;20200;-79
2020/12/16 07:07:58;;;;;;;11.93;10.93;;;;;;;6.47;81.84;100756.50;5045488;28;20239;-80
2020/12/16 07:10:50;;;;;;;12.17;11.07;;;;;;;6.40;82.24;100754.72;5040625;28;20721;-80
2020/12/16 07:13:28;;;;;;;12.77;11.67;;;;;;;6.40;82.38;100754.72;5037144;28;20295;-80
2020/12/16 07:16:07;;;;;;;15.27;13.80;;;;;;;6.35;82.63;100765.09;5042552;28;20224;-79
2020/12/16 07:18:45;;;;;;;13.37;12.23;;;;;;;6.34;83.49;100771.13;5036048;28;20777;-79
2020/12/16 07:21:29;;;;;;;16.23;14.83;;;;;;;6.29;83.88;100778.91;5044375;28;20200;-80
2020/12/16 07:24:07;;;;;;;14.10;12.87;;;;;;;6.29;84.88;100784.06;5034323;28;20209;-81
2020/12/16 07:26:35;;;;;;;14.03;12.70;;;;;;;6.39;83.85;100776.34;5044266;28;20224;-86
2020/12/16 07:32:24;;;;;;;15.10;13.90;;;;;;;6.38;83.87;100777.19;5036667;28;20215;-83
2020/12/16 07:34:52;;;;;;;16.53;15.10;;;;;;;6.37;83.43;100776.34;5039208;28;20205;-83
2020/12/16 07:37:20;;;;;;;15.67;14.37;;;;;;;6.28;84.89;100777.19;5041137;28;20201;-81
2020/12/16 07:39:48;;;;;;;17.57;16.07;;;;;;;6.28;85.35;100782.38;5035618;28;20227;-82
2020/12/16 07:42:25;;;;;;;15.97;14.67;;;;;;;6.30;85.10;100788.41;5036475;28;20205;-82
2020/12/16 07:44:51;;;;;;;15.67;14.37;;;;;;;6.36;84.43;100793.63;5043461;28;20253;-83
2020/12/16 07:47:17;;;;;;;15.77;14.27;;;;;;;6.44;84.17;100792.78;5040387;28;20232;-83
2020/12/16 07:53:18;;;;;;;18.20;16.57;;;;;;;6.40;86.14;100796.22;5022343;28;20259;-85
2020/12/16 07:55:45;;;;;;;18.77;17.13;;;;;;;6.40;86.43;100804.84;5037140;28;20206;-84
2020/12/16 07:58:12;;;;;;;18.67;16.80;;;;;;;6.42;86.27;100797.09;5039327;28;20285;-83
2020/12/16 08:00:38;;;;;;;16.57;15.17;;;;;;;6.47;85.87;100800.56;5038400;28;20222;-84
2020/12/16 08:03:05;;;;;;;16.03;14.63;;;;;;;6.49;85.16;100807.50;5039605;28;20288;-83
2020/12/16 08:05:31;;;;;;;16.07;14.67;;;;;;;6.45;84.52;100807.47;5044868;28;20204;-84
2020/12/16 08:08:01;;;;;;;19.57;15.53;;;;;;;6.49;84.43;100804.03;5041908;28;21664;-84
2020/12/16 08:18:18;;;;;;;16.97;15.47;;;;;;;6.72;83.29;100814.50;4201338;22;20232;-83
2020/12/16 08:23:51;;;;;;;17.37;15.87;;;;;;;6.64;84.42;100817.06;5031818;28;20205;-84
2020/12/16 08:26:17;;;;;;;19.43;17.73;;;;;;;6.67;85.36;100818.78;5050759;28;20772;-83
2020/12/16 08:28:44;;;;;;;20.13;18.23;;;;;;;6.69;85.32;100823.13;5046948;28;20204;-83
2020/12/16 08:31:10;;;;;;;20.00;18.20;;;;;;;6.75;85.05;100815.34;5058458;28;20202;-83
2020/12/16 08:33:38;;;;;;;17.50;16.00;;;;;;;6.80;84.86;100814.50;5050312;28;20662;-84
2020/12/16 08:36:08;;;;;;;20.77;19.05;;;;;;;6.88;84.11;100807.63;5050768;28;20444;-83
2020/12/16 08:38:37;;;;;;;17.87;16.27;;;;;;;6.91;84.68;100812.78;5049611;28;20686;-82
2020/12/16 08:41:05;;;;;;;16.57;15.17;;;;;;;6.97;84.85;100805.03;5052877;28;20205;-81
2020/12/16 08:43:35;;;;;;;15.87;14.53;;;;;;;6.98;84.49;100801.56;5048979;28;20205;-81
2020/12/16 08:46:04;;;;;;;14.50;13.10;;;;;;;7.07;84.70;100800.72;5050405;28;20209;-82
2020/12/16 09:08:28;;;;;;;19.90;18.03;;;;;;;7.54;86.28;100795.53;4928115;29;20226;-81
2020/12/16 09:11:10;;;;;;;20.60;18.70;;;;;;;7.62;86.66;100797.28;4926221;29;20609;-81
2020/12/16 09:13:44;;;;;;;34.77;29.93;;;;;;;7.73;85.99;100808.50;4935268;28;20210;-81
2020/12/16 09:16:50;;;;;;;21.43;19.33;;;;;;;7.82;86.37;100812.81;4973437;28;20216;-81
2020/12/16 09:19:19;;;;;;;20.73;18.60;;;;;;;7.88;86.25;100811.06;4973610;28;20231;-82
2020/12/16 09:21:45;;;;;;;21.57;19.40;;;;;;;7.99;85.45;100813.66;4985420;28;20206;-81
2020/12/16 09:24:22;;;;;;;20.73;18.93;;;;;;;8.03;85.84;100814.53;4990736;28;20211;-82
2020/12/16 09:26:48;;;;;;;23.10;20.20;;;;;;;8.19;87.07;100813.59;5042099;28;20201;-81
2020/12/16 09:29:25;;;;;;;21.37;19.17;;;;;;;8.33;86.79;100818.75;5044658;28;20232;-82
2020/12/16 09:31:55;;;;;;;19.87;18.00;;;;;;;8.48;87.07;100818.75;5039388;28;20201;-82
2020/12/16 09:34:42;;;;;;;19.67;18.00;;;;;;;8.61;87.13;100811.72;5037511;28;20218;-83
2020/12/16 09:37:13;;;;;;;18.50;16.70;;;;;;;8.64;85.46;100819.53;5039890;28;20211;-81
2020/12/16 09:39:49;;;;;;;18.80;17.00;;;;;;;8.75;85.90;100816.88;5047080;28;20260;-83
2020/12/16 09:42:16;;;;;;;18.20;16.60;;;;;;;8.90;86.16;100815.91;5043044;28;20231;-82
2020/12/16 09:44:43;;;;;;;17.57;16.17;;;;;;;8.93;85.29;100811.53;5041580;28;20226;-81
2020/12/16 10:06:51;;;;;;;15.20;13.93;;;;;;;9.66;83.97;100804.03;4849286;29;20286;-84
2020/12/16 10:09:19;;;;;;;14.53;13.40;;;;;;;9.68;83.87;100804.03;4868733;29;20228;-81
2020/12/16 10:11:47;;;;;;;14.10;12.90;;;;;;;9.63;83.40;100805.81;4880815;29;20202;-81
2020/12/16 10:14:19;;;;;;;13.00;12.00;;;;;;;9.59;81.94;100810.19;4935570;28;20198;-81
2020/12/16 10:16:46;;;;;;;14.17;12.67;;;;;;;9.70;84.71;100815.31;5003419;28;20619;-81
2020/12/16 10:19:13;;;;;;;12.83;11.57;;;;;;;9.74;84.87;100815.25;5007052;28;20253;-82
2020/12/16 10:21:40;;;;;;;11.43;10.47;;;;;;;9.70;83.22;100810.97;5005663;28;20203;-80
2020/12/16 10:24:13;;;;;;;11.40;10.50;;;;;;;9.58;81.70;100803.25;5003195;28;20296;-85
2020/12/16 10:27:07;;;;;;;11.50;10.60;;;;;;;9.40;81.44;100806.88;5000207;28;20684;-82
2020/12/16 10:29:35;;;;;;;11.53;10.63;;;;;;;9.22;81.01;100809.66;5005136;28;20237;-83
2020/12/16 10:32:01;;;;;;;13.07;11.87;;;;;;;9.13;81.91;100805.34;4999823;28;20233;-82
2020/12/16 10:34:27;;;;;;;13.03;11.93;;;;;;;9.09;81.50;100807.09;5007108;28;20205;-82
2020/12/16 10:36:53;;;;;;;12.23;11.30;;;;;;;8.89;82.13;100799.44;5006645;28;20568;-82
2020/12/16 10:39:21;;;;;;;12.93;11.93;;;;;;;8.91;82.44;100800.28;4996892;28;20257;-82
2020/12/16 10:45:27;;;;;;;13.27;12.27;;;;;;;8.87;82.45;100797.72;4860992;29;20261;-84
2020/12/16 10:47:59;;;;;;;13.10;12.10;;;;;;;8.84;82.76;100801.22;4858435;29;20212;-81
2020/12/16 10:50:30;;;;;;;12.53;11.60;;;;;;;8.87;82.92;100800.31;4961637;28;20667;-83
2020/12/16 10:52:56;;;;;;;13.13;11.93;;;;;;;8.85;82.69;100804.66;5003992;28;20296;-81
2020/12/16 10:55:23;;;;;;;12.70;11.70;;;;;;;8.92;83.15;100799.41;4999307;28;20284;-81
2020/12/16 10:57:49;;;;;;;12.53;11.43;;;;;;;8.93;82.42;100811.53;5000419;28;20199;-82
2020/12/16 11:00:16;;;;;;;12.77;11.60;;;;;;;8.97;82.63;100807.19;5000668;28;20232;-82
2020/12/16 11:02:41;;;;;;;12.50;11.50;;;;;;;9.04;82.57;100806.28;5004168;28;20221;-82
2020/12/16 11:05:07;;;;;;;12.47;11.47;;;;;;;9.14;81.88;100801.88;5005418;28;20254;-81
2020/12/16 11:07:33;;;;;;;10.83;9.87;;;;;;;9.19;82.03;100794.88;5001871;28;20202;-82
2020/12/16 11:09:59;;;;;;;11.97;10.77;;;;;;;9.15;82.02;100798.38;5002340;28;20225;-80
2020/12/16 11:12:25;;;;;;;10.60;9.80;;;;;;;9.14;82.24;100794.06;5002851;28;20198;-82
2020/12/16 11:14:51;;;;;;;9.50;8.80;;;;;;;8.99;81.55;100789.81;5000980;28;20212;-81
2020/12/16 11:17:18;;;;;;;10.70;9.80;;;;;;;9.04;81.61;100793.28;5002870;28;20216;-80
2020/12/16 11:19:44;;;;;;;9.30;8.53;;;;;;;9.00;81.20;100801.09;5001237;28;20246;-80
2020/12/16 11:22:09;;;;;;;9.93;9.20;;;;;;;8.91;82.29;100786.41;5003661;28;20670;-80
2020/12/16 11:24:35;;;;;;;10.93;10.13;;;;;;;8.89;81.85;100795.97;5003109;28;20297;-80
2020/12/16 11:27:01;;;;;;;10.13;9.33;;;;;;;8.93;82.07;100797.66;5003169;28;20217;-80
2020/12/16 11:29:27;;;;;;;11.40;10.50;;;;;;;8.86;82.17;100802.06;5003713;28;20252;-80
2020/12/16 11:31:55;;;;;;;12.40;11.40;;;;;;;8.88;81.81;100794.22;5006607;28;20237;-81
2020/12/16 11:34:23;;;;;;;11.67;10.67;;;;;;;8.96;81.96;100797.66;5007908;28;20218;-81
2020/12/16 11:36:51;;;;;;;11.00;10.20;;;;;;;8.98;81.76;100790.72;5003949;28;20200;-81
2020/12/16 11:39:18;;;;;;;11.17;10.37;;;;;;;8.93;82.23;100789.88;5005192;28;20245;-81
2020/12/16 11:41:45;;;;;;;12.63;11.63;;;;;;;8.94;82.04;100787.25;5006588;28;20202;-82
2020/12/16 11:44:11;;;;;;;12.20;11.30;;;;;;;9.02;81.93;100787.22;5005424;28;20210;-82
2020/12/16 11:46:37;;;;;;;12.57;11.57;;;;;;;9.09;81.76;100783.66;5008554;28;20267;-82
2020/12/16 11:49:30;;;;;;;12.40;11.50;;;;;;;9.05;81.46;100781.97;5003446;28;20599;-81
2020/12/16 11:51:56;;;;;;;12.20;11.30;;;;;;;9.09;81.96;100777.59;5002594;28;20213;-81
2020/12/16 11:54:35;;;;;;;13.50;12.40;;;;;;;9.12;81.93;100780.19;5002485;28;20221;-82
2020/12/16 11:57:01;;;;;;;14.03;12.73;;;;;;;9.14;81.16;100773.22;5009778;28;20216;-82
2020/12/16 11:59:27;;;;;;;14.13;12.83;;;;;;;9.12;81.59;100770.63;5007238;28;20253;-81
2020/12/16 12:01:54;;;;;;;13.93;12.83;;;;;;;9.21;81.55;100776.66;5005830;28;20202;-83
2020/12/16 12:04:20;;;;;;;14.70;13.50;;;;;;;9.16;80.98;100768.88;5005439;28;20211;-81
2020/12/16 12:06:51;;;;;;;13.83;12.73;;;;;;;9.18;81.05;100772.34;5008799;28;20665;-81
2020/12/16 12:09:17;;;;;;;13.90;12.70;;;;;;;9.21;81.50;100769.69;5006007;28;20314;-83
2020/12/16 12:11:44;;;;;;;13.37;12.27;;;;;;;9.36;80.56;100775.66;5010252;28;20723;-81
2020/12/16 12:14:10;;;;;;;12.43;11.33;;;;;;;9.46;80.38;100769.50;5006402;28;20253;-79
2020/12/16 12:16:36;;;;;;;11.20;10.20;;;;;;;9.45;80.22;100768.59;5008530;28;20206;-80
2020/12/16 12:19:02;;;;;;;12.87;11.87;;;;;;;9.53;79.44;100763.31;5002099;28;20241;-79
2020/12/16 12:21:28;;;;;;;12.17;11.07;;;;;;;9.50;78.72;100758.16;5007017;28;20251;-80
2020/12/16 12:24:00;;;;;;;12.00;11.10;;;;;;;9.50;78.76;100755.56;5023128;28;20218;-79
2020/12/16 12:26:27;;;;;;;13.17;11.60;;;;;;;9.41;78.67;100764.31;5023081;28;20188;-79
2020/12/16 12:28:55;;;;;;;12.40;11.40;;;;;;;9.50;78.45;100763.38;5023189;28;20244;-80